Time;durP1;ratioP1;P1;durP2;ratioP2;P2;SDS_P1;SDS_P2;PMS_P1;PMS_P2;Temp;Humidity;BMP_temperature;BMP_pressure;BME280_temperature;BME280_humidity;BME280_pressure;Samples;Min_cycle;Max_cycle;Signal;HPM_P1;HPM_P2
2021/12/09 00:00:52;;;;;;;12.80;9.07;;;;;;;;;;5053501;28;20900;-66
2021/12/09 00:03:19;;;;;;;9.73;8.80;;;;;;;;;;5053337;28;20497;-67
2021/12/09 00:05:46;;;;;;;14.87;7.57;;;;;;;;;;5053425;28;20882;-66
2021/12/09 00:08:13;;;;;;;8.27;7.60;;;;;;;;;;5053470;28;20429;-66
2021/12/09 00:10:39;;;;;;;12.60;8.37;;;;;;;;;;5051971;28;20480;-65
2021/12/09 00:13:06;;;;;;;10.37;7.30;;;;;;;;;;5053382;28;20487;-65
2021/12/09 00:15:33;;;;;;;8.57;7.70;;;;;;;;;;5053451;28;20387;-69
2021/12/09 00:17:59;;;;;;;10.60;7.80;;;;;;;;;;5053274;28;20869;-66
2021/12/09 00:20:25;;;;;;;9.40;7.40;;;;;;;;;;5053442;28;20867;-65
2021/12/09 00:22:51;;;;;;;10.13;7.03;;;;;;;;;;5053103;28;20440;-68
2021/12/09 00:25:17;;;;;;;6.97;6.27;;;;;;;;;;5053378;28;20513;-67
2021/12/09 00:27:43;;;;;;;11.20;6.67;;;;;;;;;;5053342;28;20399;-66
2021/12/09 00:30:10;;;;;;;13.63;7.10;;;;;;;;;;5053205;28;21015;-66
2021/12/09 00:32:36;;;;;;;8.83;6.03;;;;;;;;;;5053216;28;20507;-67
2021/12/09 00:35:03;;;;;;;8.17;6.27;;;;;;;;;;5053311;28;20407;-67
2021/12/09 00:37:37;;;;;;;9.83;6.33;;;;;;;;;;5053161;28;20402;-66
2021/12/09 00:40:03;;;;;;;7.33;6.60;;;;;;;;;;5053078;28;20467;-67
2021/12/09 00:42:29;;;;;;;7.20;5.40;;;;;;;;;;5053173;28;20865;-66
2021/12/09 00:44:55;;;;;;;11.13;7.47;;;;;;;;;;5053172;28;20417;-66
2021/12/09 00:47:22;;;;;;;9.43;6.00;;;;;;;;;;5053131;28;20414;-68
2021/12/09 00:49:49;;;;;;;7.07;5.93;;;;;;;;;;5053063;28;20462;-66
2021/12/09 00:52:15;;;;;;;5.97;5.60;;;;;;;;;;5053078;28;20415;-67
2021/12/09 00:54:42;;;;;;;6.73;6.10;;;;;;;;;;5053132;28;20772;-68
2021/12/09 00:57:08;;;;;;;6.80;5.70;;;;;;;;;;5053005;28;20381;-66
2021/12/09 00:59:34;;;;;;;5.63;4.97;;;;;;;;;;5053065;28;20395;-67
2021/12/09 01:02:00;;;;;;;6.93;5.77;;;;;;;;;;5052997;28;20426;-66
2021/12/09 01:04:27;;;;;;;6.90;6.20;;;;;;;;;;5051718;28;20942;-66
2021/12/09 01:06:53;;;;;;;5.87;5.43;;;;;;;;;;5051682;28;20394;-66
2021/12/09 01:09:19;;;;;;;8.60;6.27;;;;;;;;;;5052663;28;20461;-66
2021/12/09 01:11:45;;;;;;;6.13;5.53;;;;;;;;;;5052973;28;20407;-66
2021/12/09 01:14:11;;;;;;;6.40;5.90;;;;;;;;;;5052990;28;20404;-66
2021/12/09 01:16:37;;;;;;;6.57;5.97;;;;;;;;;;5052855;28;20837;-67
2021/12/09 01:19:04;;;;;;;8.30;6.50;;;;;;;;;;5052893;28;20405;-69
2021/12/09 01:21:30;;;;;;;6.50;5.90;;;;;;;;;;5052798;28;20411;-65
2021/12/09 01:23:56;;;;;;;6.40;5.90;;;;;;;;;;5053115;28;20406;-66
2021/12/09 01:26:24;;;;;;;6.43;5.90;;;;;;;;;;5052902;28;20374;-65
2021/12/09 01:28:56;;;;;;;7.93;6.40;;;;;;;;;;5052947;28;20412;-66
2021/12/09 01:31:30;;;;;;;7.87;6.67;;;;;;;;;;5052861;28;20466;-64
2021/12/09 01:34:01;;;;;;;9.17;6.13;;;;;;;;;;5054601;28;20433;-65
2021/12/09 01:36:27;;;;;;;7.43;6.83;;;;;;;;;;5056533;28;20370;-65
2021/12/09 01:38:53;;;;;;;11.50;6.83;;;;;;;;;;5056269;28;20860;-66
2021/12/09 01:41:19;;;;;;;10.90;7.10;;;;;;;;;;5056143;28;20403;-66
2021/12/09 01:43:46;;;;;;;6.63;6.13;;;;;;;;;;5056141;28;20385;-65
2021/12/09 01:46:13;;;;;;;9.37;6.00;;;;;;;;;;5056337;28;20756;-66
2021/12/09 01:48:40;;;;;;;7.00;6.50;;;;;;;;;;5056194;28;20449;-66
2021/12/09 01:51:06;;;;;;;8.40;5.60;;;;;;;;;;5055835;28;20469;-66
2021/12/09 01:53:32;;;;;;;6.80;6.20;;;;;;;;;;5056072;28;20382;-66
2021/12/09 01:56:00;;;;;;;7.37;6.70;;;;;;;;;;5055874;28;20407;-66
2021/12/09 01:58:26;;;;;;;7.67;6.20;;;;;;;;;;5054627;28;20477;-68
2021/12/09 02:00:52;;;;;;;7.17;6.53;;;;;;;;;;5055731;28;20385;-66
2021/12/09 02:03:18;;;;;;;6.90;6.27;;;;;;;;;;5055654;28;20420;-66
2021/12/09 02:05:44;;;;;;;9.17;6.20;;;;;;;;;;5055722;28;20469;-67
2021/12/09 02:08:13;;;;;;;8.13;7.13;;;;;;;;;;5055489;28;22622;-66
2021/12/09 02:10:39;;;;;;;9.93;7.80;;;;;;;;;;5055522;28;20894;-65
2021/12/09 02:13:05;;;;;;;8.80;6.77;;;;;;;;;;5055540;28;20388;-66
2021/12/09 02:15:31;;;;;;;8.10;6.60;;;;;;;;;;5055509;28;20391;-65
2021/12/09 02:17:58;;;;;;;8.47;6.47;;;;;;;;;;5055444;28;20411;-66
2021/12/09 02:20:27;;;;;;;9.17;6.43;;;;;;;;;;5055377;28;20408;-66
2021/12/09 02:22:56;;;;;;;8.50;6.77;;;;;;;;;;5055419;28;20382;-66
2021/12/09 02:25:22;;;;;;;7.17;6.60;;;;;;;;;;5055333;28;20387;-67
2021/12/09 02:27:49;;;;;;;9.30;6.27;;;;;;;;;;5055381;28;20374;-65
2021/12/09 02:30:16;;;;;;;10.03;6.97;;;;;;;;;;5055106;28;20437;-66
2021/12/09 02:32:43;;;;;;;14.70;7.43;;;;;;;;;;5055363;28;20397;-67
2021/12/09 02:35:09;;;;;;;7.80;6.77;;;;;;;;;;5055122;28;20855;-65
2021/12/09 02:37:36;;;;;;;11.53;7.50;;;;;;;;;;5055138;28;20422;-66
2021/12/09 02:40:02;;;;;;;11.63;7.53;;;;;;;;;;5055063;28;20407;-66
2021/12/09 02:42:29;;;;;;;9.13;7.43;;;;;;;;;;5053744;28;20411;-67
2021/12/09 02:44:57;;;;;;;7.77;7.13;;;;;;;;;;5054960;28;20495;-66
2021/12/09 02:47:23;;;;;;;8.40;7.57;;;;;;;;;;5054900;28;20419;-66
2021/12/09 02:49:49;;;;;;;7.27;6.87;;;;;;;;;;5054735;28;20450;-67
2021/12/09 02:52:15;;;;;;;8.87;8.10;;;;;;;;;;5054765;28;20890;-66
2021/12/09 02:54:41;;;;;;;15.80;7.30;;;;;;;;;;5053465;28;20446;-66
2021/12/09 02:57:07;;;;;;;7.90;7.20;;;;;;;;;;5054737;28;20890;-66
2021/12/09 02:59:34;;;;;;;10.70;7.10;;;;;;;;;;5054827;28;20411;-65
2021/12/09 03:02:01;;;;;;;7.50;6.90;;;;;;;;;;5054622;28;20415;-66
2021/12/09 03:04:36;;;;;;;7.93;7.10;;;;;;;;;;5053290;28;20434;-67
2021/12/09 03:07:03;;;;;;;7.90;7.17;;;;;;;;;;5054813;28;20389;-67
2021/12/09 03:09:29;;;;;;;8.03;6.50;;;;;;;;;;5054258;28;20483;-66
2021/12/09 03:11:55;;;;;;;7.17;6.63;;;;;;;;;;5054438;28;20415;-67
2021/12/09 03:14:24;;;;;;;9.00;7.47;;;;;;;;;;5054391;28;20398;-66
2021/12/09 03:16:51;;;;;;;7.13;6.43;;;;;;;;;;5054280;28;20930;-67
2021/12/09 03:19:18;;;;;;;10.33;6.47;;;;;;;;;;5054276;28;20370;-67
2021/12/09 03:21:45;;;;;;;7.93;7.20;;;;;;;;;;5054314;28;20890;-67
2021/12/09 03:24:12;;;;;;;13.63;7.53;;;;;;;;;;5054295;28;20743;-66
2021/12/09 03:26:42;;;;;;;7.60;6.80;;;;;;;;;;5054293;28;20378;-66
2021/12/09 03:29:10;;;;;;;9.57;6.73;;;;;;;;;;5054016;28;20611;-66
2021/12/09 03:31:37;;;;;;;10.97;7.10;;;;;;;;;;5054033;28;20382;-67
2021/12/09 03:34:03;;;;;;;12.27;7.00;;;;;;;;;;5054121;28;20513;-66
2021/12/09 03:36:29;;;;;;;8.87;6.53;;;;;;;;;;5054031;28;20385;-66
2021/12/09 03:39:00;;;;;;;9.03;7.10;;;;;;;;;;5053962;28;20411;-66
2021/12/09 03:41:26;;;;;;;9.13;6.97;;;;;;;;;;5053902;28;20399;-66
2021/12/09 03:43:52;;;;;;;10.97;6.93;;;;;;;;;;5053844;28;20868;-66
2021/12/09 03:46:18;;;;;;;7.23;6.53;;;;;;;;;;5053807;28;20403;-65
2021/12/09 03:48:45;;;;;;;7.50;6.63;;;;;;;;;;5053724;28;20397;-66
2021/12/09 03:51:11;;;;;;;9.43;6.47;;;;;;;;;;5053626;28;20553;-66
2021/12/09 03:53:37;;;;;;;7.50;6.13;;;;;;;;;;5053810;28;20374;-66
2021/12/09 03:56:03;;;;;;;6.53;6.13;;;;;;;;;;5051948;28;20949;-66
2021/12/09 03:58:29;;;;;;;9.33;7.30;;;;;;;;;;5052374;28;20390;-66
2021/12/09 04:00:55;;;;;;;9.20;6.10;;;;;;;;;;5052295;28;20426;-66
2021/12/09 04:03:21;;;;;;;8.50;6.10;;;;;;;;;;5053521;28;20419;-65
2021/12/09 04:05:48;;;;;;;7.40;6.57;;;;;;;;;;5053593;28;20968;-66
2021/12/09 04:08:15;;;;;;;7.70;6.90;;;;;;;;;;5053228;28;20474;-66
2021/12/09 04:10:41;;;;;;;13.63;7.67;;;;;;;;;;5053406;28;20470;-66
2021/12/09 04:13:07;;;;;;;9.17;6.00;;;;;;;;;;5053429;28;20385;-66
2021/12/09 04:15:33;;;;;;;7.27;6.30;;;;;;;;;;5053470;28;20419;-66
2021/12/09 04:17:59;;;;;;;10.40;7.43;;;;;;;;;;5053360;28;20460;-66
2021/12/09 04:20:25;;;;;;;11.60;7.57;;;;;;;;;;5053360;28;20390;-66
2021/12/09 04:22:51;;;;;;;7.13;6.53;;;;;;;;;;5053347;28;20386;-66
2021/12/09 04:25:18;;;;;;;6.30;5.70;;;;;;;;;;5053437;28;20417;-65
2021/12/09 04:27:45;;;;;;;6.97;6.27;;;;;;;;;;5053353;28;20894;-66
2021/12/09 04:30:11;;;;;;;10.33;6.60;;;;;;;;;;5053325;28;20467;-67
2021/12/09 04:32:37;;;;;;;8.40;6.83;;;;;;;;;;5053253;28;20438;-66
2021/12/09 04:35:03;;;;;;;7.13;6.43;;;;;;;;;;5053331;28;20425;-66
2021/12/09 04:37:29;;;;;;;8.20;6.40;;;;;;;;;;5052013;28;20422;-66
2021/12/09 04:39:55;;;;;;;6.83;6.23;;;;;;;;;;5053243;28;20938;-66
2021/12/09 04:42:21;;;;;;;5.80;5.30;;;;;;;;;;5053201;28;20450;-66
2021/12/09 04:44:49;;;;;;;6.23;5.63;;;;;;;;;;5053281;28;20969;-66
2021/12/09 04:47:15;;;;;;;12.33;6.20;;;;;;;;;;5053068;28;20411;-66
2021/12/09 04:49:41;;;;;;;7.13;6.27;;;;;;;;;;5053142;28;20864;-65
2021/12/09 04:52:07;;;;;;;9.73;6.80;;;;;;;;;;5051861;28;20430;-66
2021/12/09 04:54:36;;;;;;;7.47;5.97;;;;;;;;;;5053203;28;20425;-66
2021/12/09 04:57:03;;;;;;;8.33;7.40;;;;;;;;;;5052939;28;20415;-66
2021/12/09 04:59:30;;;;;;;6.83;6.13;;;;;;;;;;5053080;28;20407;-73
2021/12/09 05:01:56;;;;;;;7.17;6.43;;;;;;;;;;5052896;28;20480;-66
2021/12/09 05:04:22;;;;;;;8.20;6.43;;;;;;;;;;5053044;28;20886;-66
2021/12/09 05:06:48;;;;;;;7.23;6.37;;;;;;;;;;5051689;28;20460;-67
2021/12/09 05:09:17;;;;;;;6.73;6.10;;;;;;;;;;5055192;28;20848;-66
2021/12/09 05:14:09;;;;;;;7.80;6.70;;;;;;;;;;5056974;28;20399;-66
2021/12/09 05:16:35;;;;;;;7.10;6.33;;;;;;;;;;5056585;28;20469;-66
2021/12/09 05:19:01;;;;;;;7.20;6.50;;;;;;;;;;5056606;28;20486;-66
2021/12/09 05:21:36;;;;;;;9.30;6.53;;;;;;;;;;5056518;28;20494;-66
2021/12/09 05:24:03;;;;;;;12.07;10.70;;;;;;;;;;5056477;28;20430;-66
2021/12/09 05:26:30;;;;;;;7.67;6.90;;;;;;;;;;5056428;28;20467;-68
2021/12/09 05:28:57;;;;;;;16.40;11.80;;;;;;;;;;5056494;28;20420;-66
2021/12/09 05:34:08;;;;;;;5.90;5.40;;;;;;;;;;5056594;28;20408;-66
2021/12/09 05:36:34;;;;;;;5.93;5.33;;;;;;;;;;5056333;28;20377;-66
2021/12/09 05:39:01;;;;;;;5.60;5.10;;;;;;;;;;5054927;28;20404;-66
2021/12/09 05:41:27;;;;;;;5.50;5.10;;;;;;;;;;5056194;28;20468;-66
2021/12/09 05:43:53;;;;;;;6.70;5.63;;;;;;;;;;5056137;28;20565;-68
2021/12/09 05:46:20;;;;;;;6.30;5.73;;;;;;;;;;5056120;28;20439;-66
2021/12/09 05:48:46;;;;;;;6.37;5.10;;;;;;;;;;5055936;28;20411;-66
2021/12/09 05:51:12;;;;;;;9.03;5.23;;;;;;;;;;5055915;28;20972;-66
2021/12/09 05:53:38;;;;;;;7.13;5.47;;;;;;;;;;5055886;28;20466;-66
2021/12/09 05:56:04;;;;;;;5.53;4.53;;;;;;;;;;5055891;28;20872;-66
2021/12/09 05:58:31;;;;;;;10.53;5.37;;;;;;;;;;5055874;28;20380;-66
2021/12/09 06:00:57;;;;;;;6.10;5.50;;;;;;;;;;5055774;28;20425;-66
2021/12/09 06:03:23;;;;;;;4.73;4.43;;;;;;;;;;5055963;28;20414;-66
2021/12/09 06:05:50;;;;;;;4.87;4.43;;;;;;;;;;5054320;28;20427;-68
2021/12/09 06:08:17;;;;;;;4.50;4.10;;;;;;;;;;5055327;28;20470;-67
2021/12/09 06:10:43;;;;;;;5.50;5.07;;;;;;;;;;5055517;28;20499;-67
2021/12/09 06:13:09;;;;;;;4.63;4.33;;;;;;;;;;5055903;28;20407;-66
2021/12/09 06:15:35;;;;;;;8.17;5.03;;;;;;;;;;5055540;28;20846;-66
2021/12/09 06:18:01;;;;;;;5.43;5.00;;;;;;;;;;5055444;28;20436;-67
2021/12/09 06:20:27;;;;;;;6.07;5.03;;;;;;;;;;5054983;28;20419;-67
2021/12/09 06:22:53;;;;;;;4.33;4.13;;;;;;;;;;5055441;28;20572;-66
2021/12/09 06:25:20;;;;;;;6.90;5.00;;;;;;;;;;5055371;28;20886;-67
2021/12/09 06:27:48;;;;;;;5.97;5.47;;;;;;;;;;5055505;28;20757;-67
2021/12/09 06:30:14;;;;;;;8.37;6.30;;;;;;;;;;5055174;28;20474;-67
2021/12/09 06:32:41;;;;;;;6.40;5.80;;;;;;;;;;5055185;28;20418;-67
2021/12/09 06:35:07;;;;;;;6.37;5.43;;;;;;;;;;5055169;28;20469;-66
2021/12/09 06:37:35;;;;;;;5.47;5.27;;;;;;;;;;5055118;28;20465;-66
2021/12/09 06:40:02;;;;;;;8.10;5.60;;;;;;;;;;5055081;28;20403;-67
2021/12/09 06:42:28;;;;;;;9.17;7.33;;;;;;;;;;5054996;28;20935;-67
2021/12/09 06:44:54;;;;;;;8.03;7.23;;;;;;;;;;5054935;28;20422;-67
2021/12/09 06:47:20;;;;;;;8.90;7.90;;;;;;;;;;5054836;28;20783;-66
2021/12/09 06:49:45;;;;;;;12.50;8.13;;;;;;;;;;5054775;28;20465;-66
2021/12/09 06:52:11;;;;;;;7.47;6.70;;;;;;;;;;5054777;28;20423;-67
2021/12/09 06:54:37;;;;;;;8.87;5.63;;;;;;;;;;5054899;28;20378;-67
2021/12/09 06:57:03;;;;;;;9.73;5.70;;;;;;;;;;5054740;28;20845;-68
2021/12/09 06:59:29;;;;;;;9.40;8.43;;;;;;;;;;5054962;28;20759;-66
2021/12/09 07:01:55;;;;;;;8.80;5.40;;;;;;;;;;5054640;28;20440;-66
2021/12/09 07:04:21;;;;;;;7.60;4.90;;;;;;;;;;5053310;28;20420;-69
2021/12/09 07:06:48;;;;;;;5.73;5.07;;;;;;;;;;5054533;28;20427;-66
2021/12/09 07:09:14;;;;;;;8.93;5.57;;;;;;;;;;5054340;28;20470;-67
2021/12/09 07:11:44;;;;;;;6.40;4.60;;;;;;;;;;5054473;28;20422;-66
2021/12/09 07:14:10;;;;;;;12.87;5.23;;;;;;;;;;5054403;28;20506;-66
2021/12/09 07:16:36;;;;;;;5.63;4.60;;;;;;;;;;5054490;28;20399;-67
2021/12/09 07:19:02;;;;;;;5.17;4.77;;;;;;;;;;5054297;28;20424;-65
2021/12/09 07:21:28;;;;;;;5.03;4.60;;;;;;;;;;5054221;28;20814;-65
2021/12/09 07:23:54;;;;;;;4.83;4.50;;;;;;;;;;5054244;28;20461;-64
2021/12/09 07:26:20;;;;;;;4.63;4.43;;;;;;;;;;5054154;28;20738;-64
2021/12/09 07:28:46;;;;;;;5.30;4.97;;;;;;;;;;5053973;28;20415;-65
2021/12/09 07:31:14;;;;;;;6.00;4.93;;;;;;;;;;5053463;28;20462;-64
2021/12/09 07:33:40;;;;;;;8.23;4.90;;;;;;;;;;5053978;28;20385;-65
2021/12/09 07:36:06;;;;;;;7.33;4.87;;;;;;;;;;5054047;28;20870;-67
2021/12/09 07:38:32;;;;;;;9.20;5.38;;;;;;;;;;5053670;28;20532;-66
2021/12/09 07:40:58;;;;;;;5.57;4.90;;;;;;;;;;5053884;28;20642;-65
2021/12/09 07:43:24;;;;;;;12.83;5.20;;;;;;;;;;5053922;28;20432;-68
2021/12/09 07:45:50;;;;;;;5.80;5.40;;;;;;;;;;5053786;28;20425;-68
2021/12/09 07:48:16;;;;;;;5.77;5.27;;;;;;;;;;5053861;28;20485;-68
2021/12/09 07:50:42;;;;;;;5.63;5.20;;;;;;;;;;5053668;28;20437;-67
2021/12/09 07:53:08;;;;;;;9.37;6.17;;;;;;;;;;5053742;28;20739;-67
2021/12/09 07:55:34;;;;;;;6.10;5.47;;;;;;;;;;5053686;28;20381;-67
2021/12/09 07:58:00;;;;;;;5.03;4.80;;;;;;;;;;5053648;28;20512;-67
2021/12/09 08:00:30;;;;;;;7.70;5.72;;;;;;;;;;5053634;28;20386;-68
2021/12/09 08:02:57;;;;;;;9.73;6.37;;;;;;;;;;5053557;28;20251;-67
2021/12/09 08:05:24;;;;;;;8.63;6.88;;;;;;;;;;5053634;28;20418;-67
2021/12/09 08:07:50;;;;;;;9.03;6.70;;;;;;;;;;5053784;28;20172;-68
2021/12/09 08:10:17;;;;;;;7.47;6.40;;;;;;;;;;5053391;28;20765;-65
2021/12/09 08:12:43;;;;;;;8.60;6.40;;;;;;;;;;5053474;28;20753;-67
2021/12/09 08:15:10;;;;;;;8.00;5.90;;;;;;;;;;5053363;28;20370;-67
2021/12/09 08:20:11;;;;;;;6.87;6.27;;;;;;;;;;5053620;28;20407;-66
2021/12/09 08:22:37;;;;;;;7.50;6.00;;;;;;;;;;5053246;28;20407;-65
2021/12/09 08:25:06;;;;;;;7.03;5.80;;;;;;;;;;5053413;28;20410;-65
2021/12/09 08:27:32;;;;;;;6.60;6.10;;;;;;;;;;5053211;28;20403;-70
2021/12/09 08:30:04;;;;;;;9.10;6.63;;;;;;;;;;5051898;28;20478;-66
2021/12/09 08:32:30;;;;;;;7.50;6.60;;;;;;;;;;5053912;28;20165;-65
2021/12/09 08:34:56;;;;;;;11.80;6.40;;;;;;;;;;5053330;28;20407;-65
2021/12/09 08:37:22;;;;;;;6.87;6.20;;;;;;;;;;5053294;28;20374;-65
2021/12/09 08:39:48;;;;;;;9.53;6.53;;;;;;;;;;5053608;28;20814;-66
2021/12/09 08:42:15;;;;;;;6.33;5.83;;;;;;;;;;5052985;28;20454;-67
2021/12/09 08:44:41;;;;;;;11.23;5.93;;;;;;;;;;5057268;28;20481;-66
2021/12/09 08:47:08;;;;;;;7.17;6.57;;;;;;;;;;5057274;28;20840;-65
2021/12/09 08:49:34;;;;;;;10.33;5.90;;;;;;;;;;5057118;28;20773;-66
2021/12/09 08:52:00;;;;;;;11.77;6.43;;;;;;;;;;5057154;28;20890;-66
2021/12/09 08:54:26;;;;;;;6.97;6.47;;;;;;;;;;5057109;28;20413;-68
2021/12/09 08:56:52;;;;;;;6.90;6.30;;;;;;;;;;5057289;28;20842;-65
2021/12/09 08:59:22;;;;;;;6.83;6.30;;;;;;;;;;5056998;28;20407;-65
2021/12/09 09:01:48;;;;;;;15.57;7.43;;;;;;;;;;5057140;28;20400;-66
2021/12/09 09:04:14;;;;;;;6.67;6.00;;;;;;;;;;5056871;28;20422;-65
2021/12/09 09:06:59;;;;;;;6.30;5.47;;;;;;;;;;5056838;28;20783;-65
2021/12/09 09:09:27;;;;;;;6.97;6.07;;;;;;;;;;5056570;28;20470;-65
2021/12/09 09:11:56;;;;;;;6.00;5.40;;;;;;;;;;5056635;28;20490;-65
2021/12/09 09:14:22;;;;;;;7.23;6.30;;;;;;;;;;5056668;28;20403;-63
2021/12/09 09:16:49;;;;;;;6.90;6.40;;;;;;;;;;5056595;28;20818;-67
2021/12/09 09:19:15;;;;;;;8.20;5.60;;;;;;;;;;5056578;28;20381;-67
2021/12/09 09:21:42;;;;;;;6.47;5.80;;;;;;;;;;5056524;28;20411;-69
2021/12/09 09:24:08;;;;;;;6.37;5.20;;;;;;;;;;5056783;28;20409;-70
2021/12/09 09:26:34;;;;;;;6.10;5.60;;;;;;;;;;5055135;28;20438;-69
2021/12/09 09:29:00;;;;;;;8.40;5.10;;;;;;;;;;5056446;28;20414;-71
2021/12/09 09:31:30;;;;;;;7.80;5.90;;;;;;;;;;5056311;28;20956;-70
2021/12/09 09:33:56;;;;;;;7.13;5.20;;;;;;;;;;5056332;28;20829;-70
2021/12/09 09:36:22;;;;;;;7.87;5.37;;;;;;;;;;5056357;28;20407;-70
2021/12/09 09:38:48;;;;;;;8.23;5.40;;;;;;;;;;5056164;28;20886;-71
2021/12/09 09:41:17;;;;;;;6.23;5.33;;;;;;;;;;5056228;28;20399;-70
2021/12/09 09:46:15;;;;;;;5.20;4.80;;;;;;;;;;5056128;28;20804;-71
2021/12/09 09:48:43;;;;;;;7.83;5.37;;;;;;;;;;5055978;28;20406;-67
2021/12/09 09:51:09;;;;;;;5.70;5.20;;;;;;;;;;5056007;28;20462;-67
2021/12/09 09:53:36;;;;;;;7.13;5.27;;;;;;;;;;5055521;28;20399;-67
2021/12/09 09:56:04;;;;;;;6.63;5.77;;;;;;;;;;5055764;28;20386;-66
2021/12/09 09:58:30;;;;;;;10.20;5.10;;;;;;;;;;5055832;28;20886;-66
2021/12/09 10:00:56;;;;;;;6.80;4.90;;;;;;;;;;5055879;28;20407;-67
2021/12/09 10:03:29;;;;;;;5.23;4.17;;;;;;;;;;5055622;28;20386;-68
2021/12/09 10:05:57;;;;;;;4.40;4.07;;;;;;;;;;5055638;28;20399;-67
2021/12/09 10:08:23;;;;;;;7.80;4.53;;;;;;;;;;5055525;28;20483;-68
2021/12/09 10:10:49;;;;;;;8.77;4.20;;;;;;;;;;5054251;28;20504;-67
2021/12/09 10:13:18;;;;;;;6.97;4.50;;;;;;;;;;5055542;28;20423;-67
2021/12/09 10:15:48;;;;;;;6.63;5.00;;;;;;;;;;5055496;28;20882;-68
2021/12/09 10:18:30;;;;;;;9.40;4.83;;;;;;;;;;5055400;28;20411;-67
2021/12/09 10:20:56;;;;;;;4.73;4.40;;;;;;;;;;5055398;28;20373;-67
2021/12/09 10:23:27;;;;;;;4.00;3.80;;;;;;;;;;5055277;28;20414;-67
2021/12/09 10:26:12;;;;;;;7.13;4.50;;;;;;;;;;5055216;28;21002;-70
2021/12/09 10:28:41;;;;;;;9.93;4.77;;;;;;;;;;5055257;28;20413;-68
2021/12/09 10:31:12;;;;;;;4.70;4.30;;;;;;;;;;5054884;28;20481;-72
2021/12/09 10:34:08;;;;;;;4.97;3.70;;;;;;;;;;5055082;28;20419;-72
2021/12/09 10:36:44;;;;;;;3.90;3.50;;;;;;;;;;5055373;28;20403;-71
2021/12/09 10:39:19;;;;;;;4.67;3.87;;;;;;;;;;5055087;28;20388;-69
2021/12/09 10:41:45;;;;;;;4.10;3.87;;;;;;;;;;5055013;28;20402;-72
2021/12/09 10:44:12;;;;;;;8.80;4.30;;;;;;;;;;5055250;28;20403;-72
2021/12/09 10:46:55;;;;;;;5.77;3.57;;;;;;;;;;5054995;28;20405;-68
2021/12/09 10:49:22;;;;;;;14.50;4.63;;;;;;;;;;5053659;28;20802;-68
2021/12/09 10:51:57;;;;;;;5.20;4.00;;;;;;;;;;5054864;28;20405;-68
2021/12/09 10:54:33;;;;;;;8.20;4.20;;;;;;;;;;5054811;28;20409;-68
2021/12/09 10:57:20;;;;;;;7.70;4.20;;;;;;;;;;5054960;28;20477;-67
2021/12/09 10:59:46;;;;;;;8.57;3.60;;;;;;;;;;5050781;28;20441;-68
2021/12/09 11:02:13;;;;;;;6.70;3.60;;;;;;;;;;5054598;28;20493;-67
2021/12/09 11:04:39;;;;;;;3.70;3.33;;;;;;;;;;5054633;28;20403;-68
2021/12/09 11:07:30;;;;;;;5.90;3.90;;;;;;;;;;5054554;28;20472;-68
2021/12/09 11:10:16;;;;;;;3.40;3.20;;;;;;;;;;5054320;28;20474;-66
2021/12/09 11:12:57;;;;;;;3.43;3.17;;;;;;;;;;5054551;28;20825;-67
2021/12/09 11:15:43;;;;;;;6.03;3.63;;;;;;;;;;5054378;28;20384;-68
2021/12/09 11:18:29;;;;;;;6.70;3.50;;;;;;;;;;5054336;28;20406;-67
2021/12/09 11:20:55;;;;;;;3.50;3.20;;;;;;;;;;5054390;28;20403;-68
2021/12/09 11:23:49;;;;;;;3.53;3.10;;;;;;;;;;5054290;28;20406;-67
2021/12/09 11:26:27;;;;;;;8.10;3.47;;;;;;;;;;5053323;28;20455;-68
2021/12/09 11:28:54;;;;;;;4.20;3.00;;;;;;;;;;5054200;28;20437;-68
2021/12/09 11:31:20;;;;;;;2.90;2.70;;;;;;;;;;5054215;28;20498;-67
2021/12/09 11:33:48;;;;;;;3.53;2.90;;;;;;;;;;5054073;28;20438;-67
2021/12/09 11:36:34;;;;;;;3.60;2.83;;;;;;;;;;5054294;28;20822;-68
2021/12/09 11:39:14;;;;;;;4.80;3.87;;;;;;;;;;5053770;28;20743;-68
2021/12/09 11:41:42;;;;;;;3.60;2.80;;;;;;;;;;5053997;28;20490;-68
2021/12/09 11:44:09;;;;;;;6.10;3.50;;;;;;;;;;5053896;28;20423;-68
2021/12/09 11:46:40;;;;;;;3.03;2.87;;;;;;;;;;5053818;28;20391;-68
2021/12/09 11:49:06;;;;;;;5.90;2.87;;;;;;;;;;5053716;28;20775;-67
2021/12/09 11:51:32;;;;;;;6.30;2.80;;;;;;;;;;5053520;28;20524;-68
2021/12/09 11:54:02;;;;;;;3.40;2.87;;;;;;;;;;5053803;28;20427;-68
2021/12/09 11:59:51;;;;;;;7.13;3.40;;;;;;;;;;5054049;28;20409;-69
2021/12/09 12:11:37;;;;;;;7.07;3.70;;;;;;;;;;5053747;28;20557;-67
2021/12/09 12:14:03;;;;;;;6.33;3.00;;;;;;;;;;5053159;28;20498;-68
2021/12/09 12:19:36;;;;;;;5.93;2.87;;;;;;;;;;5053678;28;20409;-68
2021/12/09 12:22:43;;;;;;;6.40;2.90;;;;;;;;;;5053313;28;20765;-69
2021/12/09 12:25:23;;;;;;;8.30;3.47;;;;;;;;;;5053150;28;20780;-66
2021/12/09 12:27:58;;;;;;;3.43;3.23;;;;;;;;;;5053359;28;20923;-65
2021/12/09 12:31:11;;;;;;;6.10;3.30;;;;;;;;;;5053011;28;21038;-67
2021/12/09 12:33:51;;;;;;;5.47;2.90;;;;;;;;;;5052969;28;20466;-66
2021/12/09 12:36:28;;;;;;;5.00;2.97;;;;;;;;;;5053339;28;20441;-65
2021/12/09 12:39:14;;;;;;;4.07;2.67;;;;;;;;;;5053450;28;20448;-65
2021/12/09 12:42:03;;;;;;;4.17;2.83;;;;;;;;;;5053086;28;20411;-66
2021/12/09 12:44:31;;;;;;;4.07;3.07;;;;;;;;;;5052011;28;20493;-68
2021/12/09 12:47:16;;;;;;;4.63;2.73;;;;;;;;;;5053080;28;20399;-67
2021/12/09 12:50:02;;;;;;;2.70;2.50;;;;;;;;;;5053094;28;20950;-66
2021/12/09 12:52:31;;;;;;;5.47;2.40;;;;;;;;;;5052998;28;20971;-68
2021/12/09 12:55:11;;;;;;;6.10;2.87;;;;;;;;;;5053358;28;20780;-67
2021/12/09 12:57:40;;;;;;;6.30;3.10;;;;;;;;;;5052968;28;20402;-66
2021/12/09 13:00:12;;;;;;;4.93;3.40;;;;;;;;;;5053042;28;20403;-66
2021/12/09 13:05:35;;;;;;;3.77;3.10;;;;;;;;;;5053010;28;20376;-68
2021/12/09 13:11:03;;;;;;;7.50;2.97;;;;;;;;;;5053132;28;20462;-73
2021/12/09 13:16:15;;;;;;;3.53;2.40;;;;;;;;;;5052812;28;20517;-68
2021/12/09 13:18:43;;;;;;;7.10;3.27;;;;;;;;;;5052718;28;20421;-67
2021/12/09 13:21:28;;;;;;;5.03;3.00;;;;;;;;;;5053066;28;20395;-67
2021/12/09 13:24:12;;;;;;;4.87;2.30;;;;;;;;;;5052710;28;20407;-67
2021/12/09 13:26:58;;;;;;;4.10;2.27;;;;;;;;;;5052716;28;20443;-69
2021/12/09 13:29:46;;;;;;;4.23;2.40;;;;;;;;;;5053819;28;20417;-69
2021/12/09 13:32:44;;;;;;;10.40;2.43;;;;;;;;;;5055067;28;20851;-71
2021/12/09 13:35:14;;;;;;;2.87;2.40;;;;;;;;;;5055067;28;20888;-68
2021/12/09 13:54:07;;;;;;;8.37;4.27;;;;;;;;;;5056063;28;20465;-70
2021/12/09 13:54:53;;;;;;;9.60;3.10;;;;;;;;;;5055778;28;20433;-70
2021/12/09 13:57:28;;;;;;;11.77;4.20;;;;;;;;;;5056005;28;20407;-73
2021/12/09 13:59:54;;;;;;;5.40;2.93;;;;;;;;;;5055867;28;20888;-73
2021/12/09 14:02:22;;;;;;;5.67;3.13;;;;;;;;;;5055822;28;20489;-70
2021/12/09 14:04:48;;;;;;;13.20;2.53;;;;;;;;;;5056102;28;20403;-71
2021/12/09 14:07:22;;;;;;;8.20;3.13;;;;;;;;;;5055771;28;20453;-71
2021/12/09 14:09:59;;;;;;;3.70;2.93;;;;;;;;;;5055407;28;20856;-70
2021/12/09 14:12:39;;;;;;;8.63;3.80;;;;;;;;;;5055870;28;20418;-67
2021/12/09 14:15:12;;;;;;;5.30;3.23;;;;;;;;;;5055665;28;20395;-68
2021/12/09 14:17:41;;;;;;;8.63;2.47;;;;;;;;;;5055789;28;20401;-65
2021/12/09 14:20:16;;;;;;;15.23;3.10;;;;;;;;;;5055449;28;20484;-67
2021/12/09 14:22:42;;;;;;;2.90;2.70;;;;;;;;;;5055358;28;20411;-67
2021/12/09 14:25:11;;;;;;;8.23;3.23;;;;;;;;;;5055396;28;20418;-67
2021/12/09 14:27:37;;;;;;;15.83;4.03;;;;;;;;;;5055289;28;20492;-67
2021/12/09 14:30:05;;;;;;;5.00;3.50;;;;;;;;;;5055249;28;20483;-66
2021/12/09 14:32:32;;;;;;;4.90;2.47;;;;;;;;;;5055238;28;20426;-69
2021/12/09 14:34:59;;;;;;;6.00;2.70;;;;;;;;;;5055496;28;20487;-70
2021/12/09 14:37:26;;;;;;;11.33;3.30;;;;;;;;;;5055181;28;20914;-68
2021/12/09 14:40:06;;;;;;;3.50;3.10;;;;;;;;;;5053608;28;20421;-70
2021/12/09 14:42:35;;;;;;;10.30;2.80;;;;;;;;;;5055056;28;20955;-71
2021/12/09 14:45:03;;;;;;;6.20;3.00;;;;;;;;;;5054908;28;20452;-70
2021/12/09 14:47:29;;;;;;;8.57;3.20;;;;;;;;;;5054912;28;20415;-69
2021/12/09 14:49:56;;;;;;;3.40;2.23;;;;;;;;;;5054857;28;20480;-67
2021/12/09 14:52:26;;;;;;;9.70;2.97;;;;;;;;;;5054860;28;20898;-67
2021/12/09 14:54:52;;;;;;;4.70;2.60;;;;;;;;;;5053542;28;20859;-69
2021/12/09 14:57:18;;;;;;;6.47;3.30;;;;;;;;;;5053538;28;20458;-67
2021/12/09 14:59:50;;;;;;;9.20;2.27;;;;;;;;;;5054791;28;20883;-68
2021/12/09 15:02:25;;;;;;;8.57;3.00;;;;;;;;;;5054612;28;20415;-68
2021/12/09 15:04:53;;;;;;;6.17;2.10;;;;;;;;;;5054629;28;20414;-67
2021/12/09 15:08:03;;;;;;;8.27;2.90;;;;;;;;;;5054816;28;20469;-67
2021/12/09 15:10:19;;;;;;;3.80;2.80;;;;;;;;;;5054089;28;20471;-69
2021/12/09 15:12:46;;;;;;;7.00;2.90;;;;;;;;;;5054477;28;20422;-69
2021/12/09 15:15:19;;;;;;;5.40;2.50;;;;;;;;;;5054438;28;20387;-66
2021/12/09 15:17:53;;;;;;;17.83;2.80;;;;;;;;;;5053107;28;20477;-69
2021/12/09 15:20:19;;;;;;;7.73;3.10;;;;;;;;;;5054587;28;20373;-68
2021/12/09 15:22:59;;;;;;;11.03;3.00;;;;;;;;;;5054357;28;20936;-68
2021/12/09 15:25:33;;;;;;;5.93;2.47;;;;;;;;;;5054229;28;20395;-70
2021/12/09 15:28:03;;;;;;;9.43;2.50;;;;;;;;;;5054293;28;20498;-69
2021/12/09 15:30:38;;;;;;;5.47;2.53;;;;;;;;;;5054613;28;20437;-69
2021/12/09 15:33:05;;;;;;;5.40;2.40;;;;;;;;;;5054194;28;20430;-67
2021/12/09 15:35:32;;;;;;;5.60;2.40;;;;;;;;;;5054106;28;20391;-67
2021/12/09 15:38:00;;;;;;;6.73;3.17;;;;;;;;;;5054157;28;20422;-67
2021/12/09 15:40:26;;;;;;;9.47;3.10;;;;;;;;;;5054029;28;20878;-66